createdAt,value
2019-03-28T05:30:52.887Z,60.3
2019-03-28T05:32:05.155Z,53.7
2019-03-28T05:33:17.654Z,52.9
2019-03-28T05:34:29.654Z,51.2
2019-03-28T05:35:42.015Z,50.7
2019-03-28T05:36:54.164Z,50.7
2019-03-28T05:39:18.659Z,50
2019-03-28T05:40:30.949Z,49.3
2019-03-28T05:41:43.167Z,48.9
2019-03-28T05:42:55.401Z,48.5
2019-03-28T05:44:07.688Z,47.5
2019-03-28T05:45:19.906Z,47.3
2019-03-28T05:47:44.422Z,48.2
2019-03-28T05:48:56.661Z,47.1
2019-03-28T05:50:08.944Z,47.2
2019-03-28T05:51:21.333Z,47.2
2019-03-28T05:52:33.414Z,47.6
2019-03-28T05:53:45.687Z,48
2019-03-28T05:54:57.922Z,47.9
2019-03-28T05:57:22.418Z,47.6
2019-03-28T05:58:34.673Z,47.8
2019-03-28T05:59:46.926Z,47.1
2019-03-28T06:00:59.190Z,47.4
2019-03-28T06:03:23.688Z,47.9
2019-03-28T06:04:35.939Z,48.5
2019-03-28T06:05:48.194Z,48.4
2019-03-28T06:07:00.433Z,48.8
2019-03-28T06:08:12.857Z,48.5
2019-03-28T06:09:24.965Z,48.2
2019-03-28T06:10:37.267Z,48.4
2019-03-28T06:11:49.457Z,47.8
2019-03-28T06:13:01.794Z,48
2019-03-28T06:15:26.241Z,48.1
2019-03-28T06:16:38.446Z,48.5
2019-03-28T06:17:50.705Z,48
2019-03-28T06:19:02.992Z,48.5
2019-03-28T06:20:15.262Z,48.4
2019-03-28T06:21:27.506Z,48.7
2019-03-28T06:22:39.733Z,49.6
2019-03-28T06:23:51.957Z,49
2019-03-28T06:25:04.401Z,49.7
2019-03-28T06:26:17.081Z,49.6
2019-03-28T06:27:28.711Z,50.4
2019-03-28T06:28:41.064Z,50.5
2019-03-28T06:29:53.278Z,51.8
2019-03-28T06:34:42.264Z,50.5
2019-03-28T06:35:54.480Z,50.7
2019-03-28T06:37:08.460Z,50.6
2019-03-28T06:39:31.314Z,51.9
2019-03-28T06:40:43.498Z,52.7
2019-03-28T06:41:55.734Z,52.7
2019-03-28T06:43:07.982Z,54.4
2019-03-28T06:44:20.248Z,53.6
2019-03-28T06:47:57.000Z,53.3
2019-03-28T06:49:09.260Z,54.4
2019-03-28T06:51:33.843Z,54.7
2019-03-28T06:52:46.286Z,54
2019-03-28T06:53:58.303Z,53.5
2019-03-28T06:55:10.535Z,53.1
2019-03-28T06:56:22.864Z,52.7
2019-03-28T06:57:35.009Z,52.2
2019-03-28T06:58:47.318Z,51.9
2019-03-28T06:59:59.559Z,51
2019-03-28T07:01:11.790Z,51.1
2019-03-28T07:02:24.030Z,52
2019-03-28T07:03:36.281Z,51.8
2019-03-28T07:04:48.947Z,52.1
2019-03-28T07:06:00.866Z,51.2
2019-03-28T07:07:13.045Z,51.3
2019-03-28T07:12:02.127Z,51.6
2019-03-28T07:13:14.282Z,52.8
2019-03-28T07:14:26.604Z,52.3
2019-03-28T07:15:38.818Z,53
2019-03-28T07:16:51.537Z,54.5
2019-03-28T07:18:03.391Z,54.5
2019-03-28T07:19:15.552Z,56.8
2019-03-28T07:20:27.802Z,56.8
2019-03-28T07:21:40.164Z,57.9
2019-03-28T07:22:52.563Z,58
2019-03-28T07:24:04.573Z,57.7
2019-03-28T07:25:18.145Z,57.8
2019-03-28T07:27:41.354Z,56.9
2019-03-28T07:28:53.655Z,56.9
2019-03-28T07:30:05.921Z,57.7
2019-03-28T07:31:18.058Z,57.4
2019-03-28T07:32:30.302Z,57.6
2019-03-28T07:33:42.719Z,59
2019-03-28T07:34:54.827Z,59.2
2019-03-28T07:36:07.093Z,57.8
2019-03-28T07:37:19.417Z,57
2019-03-28T07:38:31.658Z,58.5
2019-03-28T07:39:43.835Z,59.1
2019-03-28T07:40:56.325Z,57.5
2019-03-28T07:42:08.458Z,59.9
2019-03-28T07:43:20.639Z,61
2019-03-28T07:45:45.126Z,62.1
2019-03-28T07:46:59.169Z,61.5
2019-03-28T07:48:09.621Z,61.5
2019-03-28T07:50:34.107Z,62.4
2019-03-28T07:51:46.480Z,62
2019-03-28T07:52:58.683Z,61.3
2019-03-28T07:54:10.854Z,62.4
2019-03-28T07:55:23.121Z,62
2019-03-28T07:56:35.469Z,62.5
2019-03-28T07:57:47.767Z,62.5
2019-03-28T08:00:12.128Z,61.9
2019-03-28T08:01:24.516Z,61.3
2019-03-28T08:03:48.901Z,61.2
2019-03-28T08:05:01.147Z,63.1
2019-03-28T08:06:13.377Z,62.4
2019-03-28T08:07:25.717Z,64
2019-03-28T08:09:50.216Z,63.7
2019-03-28T08:11:02.420Z,64.5
2019-03-28T08:13:26.898Z,66.1
2019-03-28T08:15:51.419Z,66.4
2019-03-28T08:17:03.659Z,67.5
2019-03-28T08:18:16.312Z,66.5
2019-03-28T08:19:28.159Z,66.8
2019-03-28T08:21:52.758Z,67.4
2019-03-28T08:23:04.893Z,67.3
2019-03-28T08:24:17.181Z,68.2
2019-03-28T08:25:29.401Z,68.6
2019-03-28T08:27:53.899Z,68.3
2019-03-28T08:29:06.172Z,68.1
2019-03-28T08:30:18.512Z,68.3
2019-03-28T08:31:30.663Z,68.7
2019-03-28T08:32:42.909Z,69.3
2019-03-28T08:33:55.205Z,68.7
2019-03-28T08:35:07.425Z,68.9
2019-03-28T08:36:19.672Z,68.9
2019-03-28T08:37:31.918Z,68.9
2019-03-28T08:41:08.784Z,69.5
2019-03-28T08:42:21.019Z,69.6
2019-03-28T08:44:45.429Z,68.8
2019-03-28T08:45:57.770Z,68.8
2019-03-28T08:47:09.924Z,68.9
2019-03-28T08:49:34.444Z,68.8
2019-03-28T08:50:46.692Z,68.7
2019-03-28T08:51:58.945Z,69.1
2019-03-28T08:53:11.192Z,69.2
2019-03-28T08:55:35.876Z,69.3
2019-03-28T08:59:12.446Z,69.6
2019-03-28T09:00:24.710Z,69.1
2019-03-28T09:01:37.012Z,69.3
2019-03-28T09:02:49.222Z,69.2
2019-03-28T09:04:01.594Z,69.5
2019-03-28T09:05:13.719Z,69.2
2019-03-28T09:06:25.977Z,69.1
2019-03-28T09:07:38.202Z,68.8
2019-03-28T09:08:50.571Z,68.7
2019-03-28T09:10:02.827Z,68.2
2019-03-28T09:11:15.100Z,67.6
2019-03-28T09:12:27.224Z,67.4
2019-03-28T09:13:39.477Z,67.6
2019-03-28T09:16:03.998Z,66.8
2019-03-28T09:17:16.222Z,66
2019-03-28T09:18:28.577Z,65.7
2019-03-28T09:19:40.740Z,66
2019-03-28T09:20:53.124Z,66.9
2019-03-28T09:22:07.834Z,67
2019-03-28T09:23:19.996Z,66.7
2019-03-28T09:24:29.833Z,66.1
2019-03-28T09:25:42.065Z,65.8
2019-03-28T09:26:54.385Z,67.2
2019-03-28T09:28:06.637Z,67.9
2019-03-28T09:29:18.757Z,68.3
2019-03-28T09:30:30.995Z,68.5
2019-03-28T09:31:43.267Z,67.8
2019-03-28T09:34:07.781Z,67.3
2019-03-28T09:35:20.025Z,66.8
2019-03-28T09:36:32.371Z,66.3
2019-03-28T09:38:56.865Z,67
2019-03-28T09:40:09.014Z,67.4
2019-03-28T09:41:21.338Z,67.8
2019-03-28T09:43:45.928Z,68.6
2019-03-28T09:44:58.020Z,68.5
2019-03-28T09:46:10.468Z,68.9
2019-03-28T09:47:22.731Z,68.3
2019-03-28T09:49:47.134Z,67.2
2019-03-28T09:52:11.650Z,66
2019-03-28T09:53:23.898Z,65.9
2019-03-28T09:54:36.053Z,66.4
2019-03-28T09:55:48.299Z,66.8
2019-03-28T09:57:00.672Z,67.7
2019-03-28T09:58:12.800Z,67.9
2019-03-28T09:59:25.222Z,68
2019-03-28T10:00:37.313Z,68
2019-03-28T10:01:49.560Z,68.4
2019-03-28T10:03:01.837Z,68.3
2019-03-28T10:04:14.205Z,68.5
2019-03-28T10:05:26.311Z,67.8
2019-03-28T10:06:38.629Z,67.2
2019-03-28T10:07:50.844Z,66.4
2019-03-28T10:10:15.422Z,67.9
2019-03-28T10:11:27.883Z,67.2
2019-03-28T10:12:39.904Z,66
2019-03-28T10:15:04.344Z,67
2019-03-28T10:16:16.630Z,66.5
2019-03-28T10:17:28.839Z,65.8
2019-03-28T10:19:53.490Z,65.2
2019-03-28T10:21:05.581Z,65.1
2019-03-28T10:22:17.843Z,64.2
2019-03-28T10:23:30.125Z,63.4
2019-03-28T10:24:42.346Z,62.9
2019-03-28T10:25:54.702Z,62
2019-03-28T10:28:19.101Z,65
2019-03-28T10:29:31.445Z,65.2
2019-03-28T10:30:43.597Z,66.8
2019-03-28T10:31:55.857Z,67
2019-03-28T10:33:08.103Z,67.2
2019-03-28T10:34:20.377Z,66.7
2019-03-28T10:35:32.619Z,66.8
2019-03-28T10:36:44.889Z,65.8
2019-03-28T10:37:57.326Z,64.6
2019-03-28T10:39:09.391Z,63.5
2019-03-28T10:40:21.670Z,63
2019-03-28T10:41:33.961Z,62.3
2019-03-28T10:42:46.393Z,61.8
2019-03-28T10:46:23.122Z,62.5
2019-03-28T10:47:35.211Z,63.2
2019-03-28T10:48:47.500Z,64.6
2019-03-28T10:49:59.713Z,65.1
2019-03-28T10:51:11.977Z,63.3
2019-03-28T10:52:24.149Z,64.2
2019-03-28T10:53:36.432Z,65.2
2019-03-28T10:54:48.654Z,65.6
2019-03-28T10:56:00.976Z,65.8
2019-03-28T10:57:13.314Z,66.4
2019-03-28T10:58:25.533Z,64.8
2019-03-28T11:00:49.934Z,63.2
2019-03-28T11:02:02.168Z,64.8
2019-03-28T11:05:38.903Z,64.5
2019-03-28T11:06:51.182Z,65.2
2019-03-28T11:08:03.448Z,65.5
2019-03-28T11:09:15.666Z,64.8
2019-03-28T11:10:27.940Z,64.7
2019-03-28T11:11:40.191Z,64.5
2019-03-28T11:12:52.431Z,64.2
2019-03-28T11:14:04.672Z,64.2
2019-03-28T11:15:16.928Z,64
2019-03-28T11:16:29.271Z,64
2019-03-28T11:17:41.526Z,64.3
2019-03-28T11:18:53.725Z,64.5
2019-03-28T11:20:05.926Z,64.1
2019-03-28T11:24:55.016Z,66.1
2019-03-28T11:26:07.192Z,66
2019-03-28T11:27:19.552Z,65.6
2019-03-28T11:28:31.819Z,65.7
2019-03-28T11:29:43.956Z,65.5
2019-03-28T11:30:56.195Z,65.6
2019-03-28T11:32:08.489Z,65.2
2019-03-28T11:33:20.905Z,65.7
2019-03-28T11:35:45.301Z,65.6
2019-03-28T11:36:57.483Z,65.5
2019-03-28T11:40:34.211Z,62.6
2019-03-28T11:41:46.533Z,61.3
2019-03-28T11:42:58.716Z,60.3
2019-03-28T11:44:11.083Z,60.9
2019-03-28T11:45:23.301Z,59.3
2019-03-28T11:46:35.600Z,58.4
2019-03-28T11:49:00.078Z,61
2019-03-28T11:50:12.256Z,61.1
2019-03-28T11:53:49.089Z,60.1
2019-03-28T11:55:01.432Z,60.4
2019-03-28T11:56:13.488Z,61
2019-03-28T11:58:38.014Z,59.5
2019-03-28T11:59:50.412Z,59.6
2019-03-28T12:01:05.808Z,59.9
2019-03-28T12:02:14.797Z,61.3
2019-03-28T12:03:26.992Z,60.2
2019-03-28T12:04:39.262Z,57.1
2019-03-28T12:05:51.555Z,57.8
2019-03-28T12:07:07.374Z,58.2
2019-03-28T12:08:16.117Z,59.5
2019-03-28T12:09:28.407Z,59.3
2019-03-28T12:10:40.556Z,60
2019-03-28T12:11:52.840Z,60.4
2019-03-28T12:13:05.084Z,60.8
2019-03-28T12:14:17.266Z,61.6
2019-03-28T12:16:41.785Z,64.5
2019-03-28T12:17:54.116Z,64.4
2019-03-28T12:19:06.411Z,63.7
2019-03-28T12:20:18.554Z,63.1
2019-03-28T12:21:30.894Z,62.1
2019-03-28T12:22:43.053Z,60.8
2019-03-28T12:23:55.290Z,60.6
2019-03-28T12:25:07.671Z,61.7
2019-03-28T12:26:19.773Z,62.7
2019-03-28T12:27:32.122Z,63.6
2019-03-28T12:28:44.293Z,64.2
2019-03-28T12:29:56.534Z,63.6
2019-03-28T12:31:08.880Z,63.8
2019-03-28T12:32:21.440Z,63.6
2019-03-28T12:34:45.681Z,61
2019-03-28T12:35:57.975Z,60.2
2019-03-28T12:37:10.131Z,59.8
2019-03-28T12:38:22.304Z,60.6
2019-03-28T12:39:34.559Z,61.5
2019-03-28T12:40:46.826Z,62.8
2019-03-28T12:41:59.159Z,62.8
2019-03-28T12:43:11.391Z,63.1
2019-03-28T12:44:23.609Z,63.6
2019-03-28T12:45:35.814Z,63.9
2019-03-28T12:46:48.077Z,63.8
2019-03-28T12:48:00.353Z,64.4
2019-03-28T12:49:12.569Z,64.8
2019-03-28T12:50:24.992Z,64.7
2019-03-28T12:52:49.415Z,63.9
2019-03-28T12:54:01.610Z,63.8
2019-03-28T12:55:13.866Z,64.2
2019-03-28T12:57:38.437Z,63.3
2019-03-28T12:58:50.755Z,63.3
2019-03-28T13:00:02.845Z,62.5
2019-03-28T13:01:15.124Z,62
2019-03-28T13:02:27.392Z,63
2019-03-28T13:03:39.615Z,63
2019-03-28T13:04:51.859Z,62.5
2019-03-28T13:06:04.108Z,62.3
2019-03-28T13:07:18.502Z,61.5
2019-03-28T13:08:30.396Z,61.6
2019-03-28T13:10:53.176Z,61.3
2019-03-28T13:12:05.435Z,60.8
2019-03-28T13:13:17.605Z,61.4
2019-03-28T13:14:29.870Z,61.2
2019-03-28T13:15:42.119Z,60.6
2019-03-28T13:16:54.381Z,61.3
2019-03-28T13:18:06.744Z,60.8
2019-03-28T13:19:18.878Z,60.3
2019-03-28T13:20:31.209Z,60.3
2019-03-28T13:21:43.378Z,61.2
2019-03-28T13:22:56.043Z,60.9
2019-03-28T13:24:08.016Z,61.2
2019-03-28T13:25:20.378Z,61.1
2019-03-28T13:26:32.399Z,61.4
2019-03-28T13:28:57.036Z,63
2019-03-28T13:30:09.257Z,63.3
2019-03-28T13:31:21.437Z,63.9
2019-03-28T13:32:33.671Z,64.6
2019-03-28T13:33:45.964Z,64.9
2019-03-28T13:34:58.479Z,64.7
2019-03-28T13:36:10.422Z,64.1
2019-03-28T13:37:22.662Z,63.7
2019-03-28T13:38:34.921Z,63.8
2019-03-28T13:39:47.167Z,63.7
2019-03-28T13:40:59.431Z,63.6
2019-03-28T13:42:11.758Z,63.3
2019-03-28T13:43:24.018Z,63.3
2019-03-28T13:44:36.266Z,62.7
2019-03-28T13:47:00.678Z,63
2019-03-28T13:48:12.948Z,62.7
2019-03-28T13:49:25.194Z,61.2
2019-03-28T13:50:37.515Z,60.8
2019-03-28T13:51:49.771Z,59.9
2019-03-28T13:53:01.947Z,60.1
2019-03-28T13:54:14.186Z,59.2
2019-03-28T13:55:26.447Z,59.6
2019-03-28T13:56:38.793Z,55.9
2019-03-28T13:57:51.291Z,55.6
2019-03-28T13:59:03.217Z,55.3
2019-03-28T14:00:15.446Z,56.3
2019-03-28T14:01:27.701Z,55.9
2019-03-28T14:02:40.072Z,57.2
2019-03-28T14:05:04.464Z,56.5
2019-03-28T14:06:16.726Z,57.5
2019-03-28T14:07:28.983Z,55.9
2019-03-28T14:08:41.211Z,54.7
2019-03-28T14:09:53.504Z,54.9
2019-03-28T14:11:05.742Z,56.2
2019-03-28T14:12:18.094Z,55.3
2019-03-28T14:13:30.252Z,55.9
2019-03-28T14:14:42.472Z,55.7
2019-03-28T14:17:07.003Z,58.2
2019-03-28T14:19:31.533Z,61.8
2019-03-28T14:20:43.764Z,62.1
2019-03-28T14:23:08.272Z,62.8
2019-03-28T14:24:20.536Z,63.4
2019-03-28T14:25:32.812Z,63.2
2019-03-28T14:26:45.032Z,63.5
2019-03-28T14:27:57.343Z,62.2
2019-03-28T14:29:09.603Z,62.5
2019-03-28T14:30:21.746Z,63.4
2019-03-28T14:31:34.016Z,63.7
2019-03-28T14:32:46.361Z,63.7
2019-03-28T14:33:58.510Z,63.9
2019-03-28T14:35:10.790Z,63.8
2019-03-28T14:36:23.056Z,63.9
2019-03-28T14:37:35.334Z,63.5
2019-03-28T14:41:12.078Z,63
2019-03-28T14:42:24.290Z,63.5
2019-03-28T14:43:36.629Z,62.4
2019-03-28T14:44:48.780Z,62.6
2019-03-28T14:46:01.060Z,62.6
2019-03-28T14:47:13.356Z,62.7
2019-03-28T14:48:25.715Z,63
2019-03-28T14:49:37.919Z,62.5
2019-03-28T14:50:50.140Z,62.5
2019-03-28T14:52:02.310Z,63
2019-03-28T14:53:14.605Z,65.2
2019-03-28T14:54:26.791Z,66.6
2019-03-28T14:55:39.044Z,67.3
2019-03-28T14:56:51.502Z,67.7
2019-03-28T14:59:15.856Z,67.8
2019-03-28T15:00:28.054Z,67.8
2019-03-28T15:01:40.375Z,67.7
2019-03-28T15:04:04.831Z,67.5
2019-03-28T15:05:17.154Z,67.7
2019-03-28T15:06:29.411Z,67.6
2019-03-28T15:08:53.815Z,67.6
2019-03-28T15:10:06.060Z,67.8
2019-03-28T15:11:18.331Z,68.4
2019-03-28T15:12:30.644Z,67.9
2019-03-28T15:13:42.840Z,67.8
2019-03-28T15:14:55.111Z,68.1
2019-03-28T15:17:19.557Z,68.3
2019-03-28T15:18:31.852Z,68
2019-03-28T15:19:44.053Z,68.2
2019-03-28T15:20:56.510Z,67.9
2019-03-28T15:22:08.816Z,68.1
2019-03-28T15:23:20.811Z,67.9
2019-03-28T15:24:33.049Z,68.1
2019-03-28T15:25:45.317Z,67.8
2019-03-28T15:26:57.583Z,68.2
2019-03-28T15:28:10.491Z,67.9
2019-03-28T15:29:22.062Z,68
2019-03-28T15:30:34.314Z,67.6
2019-03-28T15:31:46.555Z,68.2
2019-03-28T15:32:58.858Z,68
2019-03-28T15:35:23.349Z,68.2
2019-03-28T15:36:35.688Z,67.9
2019-03-28T15:37:47.919Z,68.1
2019-03-28T15:39:00.054Z,68.3
2019-03-28T15:40:12.334Z,68.1
2019-03-28T15:41:24.604Z,68.4
2019-03-28T15:42:36.864Z,68.3
2019-03-28T15:43:49.039Z,68.3
2019-03-28T15:45:01.347Z,67.9
2019-03-28T15:46:13.745Z,68.4
2019-03-28T15:47:25.807Z,68.3
2019-03-28T15:48:38.138Z,68.2
2019-03-28T15:49:50.366Z,68.3
2019-03-28T15:51:02.605Z,68.3
2019-03-28T15:53:27.066Z,68.2
2019-03-28T15:54:39.391Z,67.9
2019-03-28T15:55:51.595Z,68.1
2019-03-28T15:57:03.963Z,68.2
2019-03-28T15:58:16.054Z,68.3
2019-03-28T15:59:28.307Z,68.3
2019-03-28T16:00:40.576Z,68.2
2019-03-28T16:01:52.808Z,68.4
2019-03-28T16:03:05.262Z,68
2019-03-28T16:04:17.309Z,68.3
2019-03-28T16:05:29.538Z,68.3
2019-03-28T16:06:42.249Z,68.5
2019-03-28T16:07:54.223Z,68.1
2019-03-28T16:09:06.349Z,68.6
2019-03-28T16:11:30.786Z,68.2
